sensor_id;sensor_type;location;lat;lon;timestamp;P1;durP1;ratioP1;P2;durP2;ratioP2
63959;SDS011;50136;51.374;0.096;2022-11-21T00:02:41;6.72;;;1.75;;
63959;SDS011;50136;51.374;0.096;2022-11-21T00:12:44;6.72;;;1.83;;
63959;SDS011;50136;51.374;0.096;2022-11-21T00:22:46;12.20;;;3.13;;
63959;SDS011;50136;51.374;0.096;2022-11-21T00:32:50;7.03;;;2.17;;
63959;SDS011;50136;51.374;0.096;2022-11-21T00:42:52;8.57;;;3.95;;
63959;SDS011;50136;51.374;0.096;2022-11-21T00:52:55;7.88;;;2.78;;
63959;SDS011;50136;51.374;0.096;2022-11-21T01:02:58;6.68;;;1.52;;
63959;SDS011;50136;51.374;0.096;2022-11-21T01:13:02;8.98;;;1.83;;
63959;SDS011;50136;51.374;0.096;2022-11-21T01:23:04;9.15;;;2.08;;
63959;SDS011;50136;51.374;0.096;2022-11-21T01:33:07;7.88;;;3.03;;
63959;SDS011;50136;51.374;0.096;2022-11-21T01:43:10;9.10;;;2.08;;
63959;SDS011;50136;51.374;0.096;2022-11-21T01:53:15;10.38;;;2.38;;
63959;SDS011;50136;51.374;0.096;2022-11-21T02:03:18;15.63;;;3.80;;
63959;SDS011;50136;51.374;0.096;2022-11-21T02:13:25;18.73;;;3.13;;
63959;SDS011;50136;51.374;0.096;2022-11-21T02:23:29;18.65;;;5.70;;
63959;SDS011;50136;51.374;0.096;2022-11-21T02:33:40;5.10;;;2.03;;
63959;SDS011;50136;51.374;0.096;2022-11-21T02:43:43;12.20;;;2.03;;
63959;SDS011;50136;51.374;0.096;2022-11-21T02:53:52;13.00;;;3.53;;
63959;SDS011;50136;51.374;0.096;2022-11-21T03:03:54;8.35;;;2.80;;
63959;SDS011;50136;51.374;0.096;2022-11-21T03:13:57;14.38;;;2.72;;
63959;SDS011;50136;51.374;0.096;2022-11-21T03:23:59;12.50;;;3.65;;
63959;SDS011;50136;51.374;0.096;2022-11-21T03:34:03;13.68;;;2.15;;
63959;SDS011;50136;51.374;0.096;2022-11-21T03:44:05;17.92;;;3.47;;
63959;SDS011;50136;51.374;0.096;2022-11-21T03:54:09;7.00;;;2.75;;
63959;SDS011;50136;51.374;0.096;2022-11-21T04:04:12;8.23;;;1.90;;
63959;SDS011;50136;51.374;0.096;2022-11-21T04:14:15;19.05;;;2.58;;
63959;SDS011;50136;51.374;0.096;2022-11-21T04:24:17;8.70;;;1.88;;
63959;SDS011;50136;51.374;0.096;2022-11-21T04:34:20;7.72;;;2.10;;
63959;SDS011;50136;51.374;0.096;2022-11-21T04:44:22;5.32;;;1.70;;
63959;SDS011;50136;51.374;0.096;2022-11-21T04:54:25;13.48;;;3.30;;
63959;SDS011;50136;51.374;0.096;2022-11-21T05:04:28;5.95;;;1.60;;
63959;SDS011;50136;51.374;0.096;2022-11-21T05:14:31;5.60;;;1.92;;
63959;SDS011;50136;51.374;0.096;2022-11-21T05:24:34;10.07;;;1.98;;
63959;SDS011;50136;51.374;0.096;2022-11-21T05:34:37;8.02;;;1.77;;
63959;SDS011;50136;51.374;0.096;2022-11-21T05:44:39;7.70;;;2.33;;
63959;SDS011;50136;51.374;0.096;2022-11-21T05:54:42;20.10;;;3.55;;
63959;SDS011;50136;51.374;0.096;2022-11-21T06:04:46;7.30;;;2.63;;
63959;SDS011;50136;51.374;0.096;2022-11-21T06:14:49;13.60;;;3.83;;
63959;SDS011;50136;51.374;0.096;2022-11-21T06:24:51;13.10;;;3.10;;
63959;SDS011;50136;51.374;0.096;2022-11-21T06:34:55;9.80;;;2.70;;
63959;SDS011;50136;51.374;0.096;2022-11-21T06:44:56;12.38;;;3.95;;
63959;SDS011;50136;51.374;0.096;2022-11-21T06:55:00;13.40;;;3.25;;
63959;SDS011;50136;51.374;0.096;2022-11-21T07:05:02;10.93;;;2.72;;
63959;SDS011;50136;51.374;0.096;2022-11-21T07:15:06;21.83;;;4.57;;
63959;SDS011;50136;51.374;0.096;2022-11-21T07:25:09;12.50;;;4.18;;
63959;SDS011;50136;51.374;0.096;2022-11-21T07:35:12;16.40;;;3.67;;
63959;SDS011;50136;51.374;0.096;2022-11-21T07:45:14;14.45;;;3.45;;
63959;SDS011;50136;51.374;0.096;2022-11-21T07:55:18;11.20;;;2.30;;
63959;SDS011;50136;51.374;0.096;2022-11-21T08:05:20;10.57;;;2.58;;
63959;SDS011;50136;51.374;0.096;2022-11-21T08:15:23;18.05;;;4.10;;
63959;SDS011;50136;51.374;0.096;2022-11-21T08:25:25;19.23;;;5.72;;
63959;SDS011;50136;51.374;0.096;2022-11-21T08:35:28;16.55;;;3.45;;
63959;SDS011;50136;51.374;0.096;2022-11-21T08:45:31;10.00;;;2.83;;
63959;SDS011;50136;51.374;0.096;2022-11-21T08:55:34;12.70;;;2.75;;
63959;SDS011;50136;51.374;0.096;2022-11-21T09:05:36;14.70;;;2.72;;
63959;SDS011;50136;51.374;0.096;2022-11-21T09:15:39;11.93;;;2.40;;
63959;SDS011;50136;51.374;0.096;2022-11-21T09:25:42;11.68;;;2.15;;
63959;SDS011;50136;51.374;0.096;2022-11-21T09:35:46;15.02;;;3.67;;
63959;SDS011;50136;51.374;0.096;2022-11-21T09:45:48;15.00;;;3.03;;
63959;SDS011;50136;51.374;0.096;2022-11-21T09:55:54;17.23;;;3.28;;
63959;SDS011;50136;51.374;0.096;2022-11-21T10:06:00;20.17;;;3.70;;
63959;SDS011;50136;51.374;0.096;2022-11-21T10:16:08;19.75;;;4.03;;
63959;SDS011;50136;51.374;0.096;2022-11-21T10:26:18;21.42;;;4.80;;
63959;SDS011;50136;51.374;0.096;2022-11-21T10:36:25;15.05;;;4.53;;
63959;SDS011;50136;51.374;0.096;2022-11-21T10:46:30;14.82;;;3.75;;
63959;SDS011;50136;51.374;0.096;2022-11-21T10:56:34;43.38;;;5.47;;
63959;SDS011;50136;51.374;0.096;2022-11-21T11:06:37;14.05;;;3.05;;
63959;SDS011;50136;51.374;0.096;2022-11-21T11:16:43;17.30;;;3.55;;
63959;SDS011;50136;51.374;0.096;2022-11-21T11:26:50;25.55;;;4.70;;
63959;SDS011;50136;51.374;0.096;2022-11-21T11:37:02;25.92;;;5.07;;
63959;SDS011;50136;51.374;0.096;2022-11-21T11:47:12;21.60;;;5.63;;
63959;SDS011;50136;51.374;0.096;2022-11-21T11:57:20;35.03;;;8.13;;
63959;SDS011;50136;51.374;0.096;2022-11-21T12:07:24;35.22;;;6.00;;
63959;SDS011;50136;51.374;0.096;2022-11-21T12:17:53;27.38;;;4.07;;
63959;SDS011;50136;51.374;0.096;2022-11-21T12:28:06;28.90;;;5.72;;
63959;SDS011;50136;51.374;0.096;2022-11-21T12:38:28;18.10;;;4.43;;
63959;SDS011;50136;51.374;0.096;2022-11-21T12:48:50;26.15;;;5.30;;
63959;SDS011;50136;51.374;0.096;2022-11-21T12:59:01;19.58;;;4.78;;
63959;SDS011;50136;51.374;0.096;2022-11-21T13:09:04;11.77;;;3.10;;
63959;SDS011;50136;51.374;0.096;2022-11-21T13:19:19;11.05;;;3.20;;
63959;SDS011;50136;51.374;0.096;2022-11-21T13:29:24;14.45;;;5.38;;
63959;SDS011;50136;51.374;0.096;2022-11-21T13:39:29;7.75;;;1.50;;
63959;SDS011;50136;51.374;0.096;2022-11-21T13:49:33;8.73;;;1.67;;
63959;SDS011;50136;51.374;0.096;2022-11-21T13:59:49;7.90;;;2.00;;
63959;SDS011;50136;51.374;0.096;2022-11-21T14:10:02;17.08;;;2.92;;
63959;SDS011;50136;51.374;0.096;2022-11-21T14:20:20;6.90;;;1.48;;
63959;SDS011;50136;51.374;0.096;2022-11-21T14:30:28;22.05;;;4.03;;
63959;SDS011;50136;51.374;0.096;2022-11-21T14:40:33;7.28;;;2.63;;
63959;SDS011;50136;51.374;0.096;2022-11-21T14:50:35;14.45;;;2.90;;
63959;SDS011;50136;51.374;0.096;2022-11-21T15:00:39;6.07;;;1.48;;
63959;SDS011;50136;51.374;0.096;2022-11-21T15:11:01;3.83;;;1.42;;
63959;SDS011;50136;51.374;0.096;2022-11-21T15:21:04;8.82;;;1.65;;
63959;SDS011;50136;51.374;0.096;2022-11-21T15:31:13;1.88;;;1.02;;
63959;SDS011;50136;51.374;0.096;2022-11-21T15:41:39;6.70;;;1.40;;
63959;SDS011;50136;51.374;0.096;2022-11-21T15:51:41;6.05;;;1.50;;
63959;SDS011;50136;51.374;0.096;2022-11-21T16:02:07;3.13;;;1.80;;
63959;SDS011;50136;51.374;0.096;2022-11-21T16:12:12;6.03;;;2.00;;
63959;SDS011;50136;51.374;0.096;2022-11-21T16:22:15;5.85;;;2.45;;
63959;SDS011;50136;51.374;0.096;2022-11-21T16:32:17;4.88;;;1.88;;
63959;SDS011;50136;51.374;0.096;2022-11-21T16:42:20;12.45;;;3.25;;
63959;SDS011;50136;51.374;0.096;2022-11-21T16:52:22;5.78;;;2.15;;
63959;SDS011;50136;51.374;0.096;2022-11-21T17:02:26;1.75;;;0.82;;
63959;SDS011;50136;51.374;0.096;2022-11-21T17:12:28;4.82;;;1.30;;
63959;SDS011;50136;51.374;0.096;2022-11-21T17:22:32;0.75;;;0.60;;
63959;SDS011;50136;51.374;0.096;2022-11-21T17:32:34;1.52;;;0.68;;
63959;SDS011;50136;51.374;0.096;2022-11-21T17:42:38;1.02;;;0.70;;
63959;SDS011;50136;51.374;0.096;2022-11-21T17:52:39;1.83;;;0.43;;
63959;SDS011;50136;51.374;0.096;2022-11-21T18:02:43;1.65;;;0.70;;
63959;SDS011;50136;51.374;0.096;2022-11-21T18:29:36;6.65;;;1.88;;
63959;SDS011;50136;51.374;0.096;2022-11-21T18:39:37;6.22;;;1.70;;
63959;SDS011;50136;51.374;0.096;2022-11-21T18:49:41;16.35;;;2.03;;
63959;SDS011;50136;51.374;0.096;2022-11-21T18:59:43;8.43;;;2.78;;
63959;SDS011;50136;51.374;0.096;2022-11-21T19:09:46;8.00;;;2.08;;
63959;SDS011;50136;51.374;0.096;2022-11-21T19:19:48;22.45;;;2.20;;
63959;SDS011;50136;51.374;0.096;2022-11-21T19:29:52;13.32;;;2.83;;
63959;SDS011;50136;51.374;0.096;2022-11-21T19:39:54;20.17;;;2.65;;
63959;SDS011;50136;51.374;0.096;2022-11-21T19:49:57;13.90;;;2.67;;
63959;SDS011;50136;51.374;0.096;2022-11-21T19:59:59;13.70;;;3.58;;
63959;SDS011;50136;51.374;0.096;2022-11-21T20:10:02;10.80;;;2.65;;
63959;SDS011;50136;51.374;0.096;2022-11-21T20:20:05;31.52;;;3.47;;
63959;SDS011;50136;51.374;0.096;2022-11-21T20:30:10;13.80;;;2.85;;
63959;SDS011;50136;51.374;0.096;2022-11-21T20:40:12;19.08;;;2.85;;
63959;SDS011;50136;51.374;0.096;2022-11-21T20:50:16;19.65;;;3.30;;
63959;SDS011;50136;51.374;0.096;2022-11-21T21:00:38;14.68;;;2.47;;
63959;SDS011;50136;51.374;0.096;2022-11-21T21:10:42;19.10;;;3.70;;
63959;SDS011;50136;51.374;0.096;2022-11-21T21:21:04;17.02;;;3.30;;
63959;SDS011;50136;51.374;0.096;2022-11-21T21:31:19;11.52;;;2.83;;
63959;SDS011;50136;51.374;0.096;2022-11-21T21:41:22;13.27;;;2.53;;
63959;SDS011;50136;51.374;0.096;2022-11-21T21:51:27;13.07;;;3.00;;
63959;SDS011;50136;51.374;0.096;2022-11-21T22:01:31;11.02;;;2.22;;
63959;SDS011;50136;51.374;0.096;2022-11-21T22:11:36;10.60;;;2.55;;
63959;SDS011;50136;51.374;0.096;2022-11-21T22:21:38;21.77;;;4.03;;
63959;SDS011;50136;51.374;0.096;2022-11-21T22:31:41;10.45;;;2.25;;
63959;SDS011;50136;51.374;0.096;2022-11-21T22:41:43;6.68;;;2.33;;
63959;SDS011;50136;51.374;0.096;2022-11-21T22:51:46;11.07;;;1.77;;
63959;SDS011;50136;51.374;0.096;2022-11-21T23:01:48;6.97;;;1.70;;
63959;SDS011;50136;51.374;0.096;2022-11-21T23:11:52;7.80;;;2.35;;
63959;SDS011;50136;51.374;0.096;2022-11-21T23:21:54;9.50;;;2.55;;
63959;SDS011;50136;51.374;0.096;2022-11-21T23:31:57;7.15;;;1.77;;
63959;SDS011;50136;51.374;0.096;2022-11-21T23:41:59;6.03;;;1.45;;
63959;SDS011;50136;51.374;0.096;2022-11-21T23:52:03;9.23;;;1.63;;
